Time;durP1;ratioP1;P1;durP2;ratioP2;P2;SDS_P1;SDS_P2;PMS_P1;PMS_P2;Temp;Humidity;BMP_temperature;BMP_pressure;BME280_temperature;BME280_humidity;BME280_pressure;Samples;Min_cycle;Max_cycle;Signal;HPM_P1;HPM_P2
2022/06/15 00:01:24;;;;;;;5.32;2.83;;;17.00;58.50;;;;;;5099612;28;20082;-67
2022/06/15 00:03:51;;;;;;;4.85;2.80;;;17.00;59.40;;;;;;5099724;28;20025;-67
2022/06/15 00:06:22;;;;;;;7.82;3.25;;;16.90;58.50;;;;;;5099478;28;20044;-67
2022/06/15 00:08:51;;;;;;;5.90;2.83;;;16.80;58.90;;;;;;5099701;28;20047;-67
2022/06/15 00:11:21;;;;;;;5.30;2.80;;;16.70;59.20;;;;;;5099619;28;20031;-67
2022/06/15 00:13:47;;;;;;;5.30;2.97;;;16.80;59.10;;;;;;5099610;28;20024;-67
2022/06/15 00:16:13;;;;;;;3.75;2.70;;;16.90;58.90;;;;;;5099577;28;20088;-67
2022/06/15 00:18:40;;;;;;;4.72;2.92;;;16.90;59.00;;;;;;5099579;28;20021;-67
2022/06/15 00:21:06;;;;;;;4.45;2.83;;;16.80;59.10;;;;;;5099479;28;20088;-67
2022/06/15 00:23:34;;;;;;;4.65;2.80;;;16.80;59.30;;;;;;5099461;28;20020;-67
2022/06/15 00:26:00;;;;;;;6.45;3.08;;;16.80;59.60;;;;;;5099485;28;20028;-67
2022/06/15 00:28:26;;;;;;;4.93;2.78;;;16.70;60.00;;;;;;5098441;28;20033;-67
2022/06/15 00:30:53;;;;;;;4.85;2.70;;;16.60;59.90;;;;;;5099429;28;20028;-67
2022/06/15 00:33:21;;;;;;;4.35;3.00;;;16.50;60.10;;;;;;5099414;28;20048;-67
2022/06/15 00:35:59;;;;;;;4.25;3.10;;;16.40;60.10;;;;;;5099421;28;20024;-67
2022/06/15 00:38:36;;;;;;;6.40;3.35;;;16.40;60.20;;;;;;5099397;28;20027;-67
2022/06/15 00:41:03;;;;;;;4.30;3.17;;;16.40;60.00;;;;;;5099272;28;20088;-67
2022/06/15 00:43:44;;;;;;;5.75;2.92;;;16.50;59.80;;;;;;5099335;28;20055;-67
2022/06/15 00:46:15;;;;;;;4.28;3.08;;;16.40;59.90;;;;;;5099349;28;20027;-67
2022/06/15 00:48:42;;;;;;;4.50;3.00;;;16.20;60.40;;;;;;5099295;28;20024;-67
2022/06/15 00:51:08;;;;;;;6.70;3.00;;;16.10;60.70;;;;;;5099256;28;20040;-67
2022/06/15 00:53:34;;;;;;;5.32;3.40;;;16.10;60.80;;;;;;5099256;28;20078;-67
2022/06/15 00:55:59;;;;;;;7.03;3.05;;;16.10;60.80;;;;;;5099213;28;20032;-67
2022/06/15 00:58:25;;;;;;;5.07;3.08;;;16.00;61.20;;;;;;5099217;28;20052;-67
2022/06/15 01:00:53;;;;;;;4.20;3.05;;;15.90;61.50;;;;;;5099124;28;20040;-67
2022/06/15 01:03:20;;;;;;;5.63;3.15;;;16.00;61.50;;;;;;5095337;28;20083;-67
2022/06/15 01:06:08;;;;;;;7.90;3.70;;;15.90;61.50;;;;;;5095924;28;20031;-67
2022/06/15 01:08:39;;;;;;;6.68;3.40;;;15.90;61.90;;;;;;5095970;28;20063;-67
2022/06/15 01:11:23;;;;;;;6.45;3.78;;;15.90;61.90;;;;;;5095788;28;20403;-66
2022/06/15 01:14:00;;;;;;;4.70;3.35;;;15.80;62.50;;;;;;5095804;28;20044;-67
2022/06/15 01:16:54;;;;;;;4.82;3.50;;;15.70;62.70;;;;;;5095895;28;20084;-67
2022/06/15 01:19:46;;;;;;;5.15;3.45;;;15.80;63.60;;;;;;5095760;28;20028;-67
2022/06/15 01:22:31;;;;;;;6.63;3.92;;;15.80;62.70;;;;;;5095761;28;20024;-67
2022/06/15 01:25:44;;;;;;;7.45;3.90;;;15.80;63.60;;;;;;5095635;28;20020;-67
2022/06/15 01:28:25;;;;;;;5.88;3.80;;;15.90;63.80;;;;;;5095631;28;20025;-66
2022/06/15 01:30:50;;;;;;;6.68;3.80;;;15.80;63.80;;;;;;5095670;28;20178;-67
2022/06/15 01:33:41;;;;;;;6.25;3.47;;;15.80;63.60;;;;;;5095447;28;20040;-67
2022/06/15 01:36:20;;;;;;;6.50;3.88;;;15.90;63.30;;;;;;5095573;28;20028;-67
2022/06/15 01:39:23;;;;;;;5.18;3.50;;;15.90;63.50;;;;;;5095407;28;20021;-67
2022/06/15 01:41:56;;;;;;;4.80;3.50;;;15.90;64.00;;;;;;5095247;28;20032;-67
2022/06/15 01:44:33;;;;;;;5.63;3.92;;;15.90;64.30;;;;;;5095251;28;20039;-67
2022/06/15 01:47:04;;;;;;;5.95;3.70;;;15.90;64.10;;;;;;5095188;28;20487;-67
2022/06/15 01:49:42;;;;;;;5.75;3.80;;;15.90;63.80;;;;;;5095199;28;20022;-67
2022/06/15 01:52:11;;;;;;;7.93;4.00;;;16.00;63.90;;;;;;5095127;28;20036;-67
2022/06/15 01:54:42;;;;;;;6.47;3.78;;;16.10;64.00;;;;;;5095042;28;20036;-67
2022/06/15 01:57:10;;;;;;;7.68;4.15;;;16.10;63.90;;;;;;5095020;28;20107;-67
2022/06/15 01:59:47;;;;;;;7.63;4.10;;;15.90;63.70;;;;;;5095050;28;20024;-67
2022/06/15 02:02:31;;;;;;;6.22;4.00;;;15.90;63.90;;;;;;5094837;28;20036;-67
2022/06/15 02:05:25;;;;;;;7.32;4.57;;;15.80;64.00;;;;;;5094860;28;20025;-67
2022/06/15 02:07:59;;;;;;;6.28;4.00;;;15.90;63.50;;;;;;5094648;28;20094;-67
2022/06/15 02:10:39;;;;;;;6.75;4.53;;;15.80;63.50;;;;;;5094738;28;20052;-67
2022/06/15 02:13:25;;;;;;;5.55;4.07;;;15.60;63.60;;;;;;5094712;28;20043;-67
2022/06/15 02:15:56;;;;;;;7.00;4.10;;;15.60;64.30;;;;;;5094779;28;20384;-67
2022/06/15 02:18:24;;;;;;;7.10;4.40;;;15.50;64.30;;;;;;5094570;28;20021;-67
2022/06/15 02:20:56;;;;;;;9.70;3.97;;;15.50;64.30;;;;;;5094438;28;20025;-67
2022/06/15 02:23:23;;;;;;;7.80;4.63;;;15.60;64.20;;;;;;5094526;28;20028;-67
2022/06/15 02:25:51;;;;;;;9.55;4.40;;;15.50;64.10;;;;;;5094373;28;20016;-67
2022/06/15 02:28:18;;;;;;;6.75;3.88;;;15.50;64.20;;;;;;5094270;28;20060;-67
2022/06/15 02:30:44;;;;;;;8.30;4.47;;;15.50;64.30;;;;;;5094281;28;20032;-67
2022/06/15 02:33:37;;;;;;;6.47;4.10;;;15.50;64.10;;;;;;5094306;28;20033;-67
2022/06/15 02:36:04;;;;;;;6.45;4.50;;;15.50;63.90;;;;;;5094227;28;20025;-67
2022/06/15 02:38:31;;;;;;;9.75;5.13;;;15.40;64.30;;;;;;5094165;28;20029;-67
2022/06/15 02:40:57;;;;;;;7.53;4.65;;;15.20;64.60;;;;;;5094023;28;20032;-67
2022/06/15 02:43:26;;;;;;;6.15;4.70;;;15.20;65.10;;;;;;5094043;28;20042;-67
2022/06/15 02:45:54;;;;;;;6.05;3.83;;;15.20;65.10;;;;;;5093993;28;20021;-67
2022/06/15 02:48:21;;;;;;;7.00;4.50;;;15.00;65.10;;;;;;5093949;28;20055;-67
2022/06/15 02:51:05;;;;;;;7.18;4.53;;;15.10;65.00;;;;;;5093939;28;20032;-67
2022/06/15 02:53:33;;;;;;;5.03;3.85;;;15.10;65.00;;;;;;5093905;28;20031;-67
2022/06/15 02:56:01;;;;;;;6.40;4.63;;;15.10;64.80;;;;;;5092784;28;20022;-67
2022/06/15 02:58:33;;;;;;;7.00;4.40;;;15.00;65.00;;;;;;5093891;28;20039;-67
2022/06/15 03:01:00;;;;;;;8.98;4.30;;;14.90;65.30;;;;;;5093660;28;20031;-67
2022/06/15 03:03:27;;;;;;;7.50;4.43;;;14.90;65.30;;;;;;5093657;28;20044;-67
2022/06/15 03:05:53;;;;;;;6.85;4.35;;;14.90;65.30;;;;;;5093468;28;20024;-67
2022/06/15 03:08:20;;;;;;;9.38;4.32;;;15.00;65.00;;;;;;5093643;28;20097;-67
2022/06/15 03:10:48;;;;;;;8.50;4.47;;;14.90;65.20;;;;;;5093566;28;20033;-67
2022/06/15 03:13:14;;;;;;;7.07;4.40;;;14.80;65.30;;;;;;5093500;28;20035;-67
2022/06/15 03:15:39;;;;;;;7.63;4.45;;;14.70;65.80;;;;;;5093630;28;20025;-67
2022/06/15 03:18:05;;;;;;;7.20;4.47;;;14.70;66.20;;;;;;5092553;28;20149;-67
2022/06/15 03:20:31;;;;;;;6.93;4.32;;;14.60;66.20;;;;;;5093381;28;20029;-67
2022/06/15 03:22:57;;;;;;;7.22;4.65;;;14.60;66.00;;;;;;5093410;28;20021;-67
2022/06/15 03:25:22;;;;;;;7.40;4.50;;;14.60;65.90;;;;;;5092683;28;20055;-67
2022/06/15 03:27:49;;;;;;;5.65;4.60;;;14.50;66.80;;;;;;5093263;28;20078;-67
2022/06/15 03:30:16;;;;;;;6.63;4.28;;;14.40;66.60;;;;;;5093359;28;20024;-67
2022/06/15 03:32:42;;;;;;;7.18;4.40;;;14.40;66.50;;;;;;5093280;28;20029;-67
2022/06/15 03:35:10;;;;;;;6.05;4.30;;;14.40;66.40;;;;;;5093269;28;20027;-67
2022/06/15 03:37:37;;;;;;;8.43;4.22;;;14.30;66.40;;;;;;5093241;28;20048;-67
2022/06/15 03:40:05;;;;;;;7.88;4.45;;;14.30;66.60;;;;;;5093233;28;20021;-67
2022/06/15 03:42:31;;;;;;;6.88;4.30;;;14.30;66.90;;;;;;5093110;28;20029;-67
2022/06/15 03:44:56;;;;;;;8.45;5.20;;;14.30;66.70;;;;;;5093180;28;20033;-67
2022/06/15 03:47:22;;;;;;;8.48;4.65;;;14.30;67.00;;;;;;5093125;28;20025;-67
2022/06/15 03:49:50;;;;;;;10.13;5.32;;;14.30;66.90;;;;;;5093252;28;20063;-67
2022/06/15 03:52:18;;;;;;;8.60;5.00;;;14.30;66.90;;;;;;5093085;28;20020;-67
2022/06/15 03:54:44;;;;;;;7.03;4.72;;;14.30;67.20;;;;;;5093064;28;20025;-67
2022/06/15 03:57:12;;;;;;;8.43;4.90;;;14.30;67.50;;;;;;5093055;28;20021;-67
2022/06/15 03:59:37;;;;;;;11.13;4.90;;;14.30;67.40;;;;;;5093041;28;20059;-67
2022/06/15 04:02:04;;;;;;;5.20;4.05;;;14.40;67.20;;;;;;5092929;28;20032;-67
2022/06/15 04:04:29;;;;;;;5.97;4.55;;;14.40;67.20;;;;;;5093041;28;20047;-67
2022/06/15 04:06:56;;;;;;;9.60;4.78;;;14.40;67.00;;;;;;5092801;28;20045;-67
2022/06/15 04:09:22;;;;;;;6.63;4.80;;;14.40;67.20;;;;;;5092921;28;20062;-67
2022/06/15 04:11:59;;;;;;;8.63;4.80;;;14.40;67.30;;;;;;5092935;28;20036;-67
2022/06/15 04:14:34;;;;;;;9.27;4.70;;;14.40;67.40;;;;;;5092918;28;20048;-67
2022/06/15 04:17:00;;;;;;;6.88;4.38;;;14.50;67.30;;;;;;5092896;28;20047;-67
2022/06/15 04:19:33;;;;;;;6.53;4.72;;;14.40;67.40;;;;;;5092762;28;20032;-67
2022/06/15 04:21:59;;;;;;;10.55;5.25;;;14.40;67.60;;;;;;5092777;28;20079;-67
2022/06/15 04:24:29;;;;;;;7.75;5.22;;;14.40;67.80;;;;;;5092771;28;20029;-67
2022/06/15 04:26:56;;;;;;;9.15;5.28;;;14.50;68.20;;;;;;5092782;28;20024;-67
2022/06/15 04:29:21;;;;;;;8.68;5.18;;;14.50;68.20;;;;;;5091711;28;20033;-67
2022/06/15 04:31:48;;;;;;;5.95;4.53;;;14.60;68.20;;;;;;5091754;28;20029;-67
2022/06/15 04:34:14;;;;;;;8.65;4.70;;;14.80;68.50;;;;;;5092709;28;20086;-67
2022/06/15 04:36:42;;;;;;;7.63;5.00;;;14.80;68.60;;;;;;5093290;28;20032;-67
2022/06/15 04:39:10;;;;;;;7.28;5.25;;;14.90;68.50;;;;;;5096366;28;20046;-67
2022/06/15 04:41:37;;;;;;;10.00;5.75;;;15.00;68.30;;;;;;5096312;28;20036;-67
2022/06/15 04:44:05;;;;;;;10.75;5.45;;;15.10;68.40;;;;;;5096336;28;20044;-68
2022/06/15 04:46:31;;;;;;;9.05;5.80;;;15.20;68.50;;;;;;5096293;28;20024;-67
2022/06/15 04:48:57;;;;;;;10.48;5.38;;;15.20;68.50;;;;;;5096283;28;20044;-67
2022/06/15 04:51:26;;;;;;;7.68;5.05;;;15.30;68.20;;;;;;5096223;28;20027;-67
2022/06/15 04:53:53;;;;;;;8.05;5.22;;;15.40;68.10;;;;;;5096125;28;20020;-67
2022/06/15 04:56:20;;;;;;;9.90;5.40;;;15.40;68.00;;;;;;5095274;28;20024;-67
2022/06/15 04:58:46;;;;;;;7.47;5.40;;;15.40;68.30;;;;;;5095997;28;20033;-67
2022/06/15 05:01:13;;;;;;;10.02;5.05;;;15.40;68.40;;;;;;5095963;28;20048;-67
2022/06/15 05:03:40;;;;;;;9.90;5.32;;;15.50;68.20;;;;;;5095989;28;20017;-66
2022/06/15 05:06:30;;;;;;;10.55;5.45;;;15.50;68.30;;;;;;5095815;28;20024;-67
2022/06/15 05:08:56;;;;;;;9.30;5.90;;;15.60;68.30;;;;;;5095900;28;20021;-66
2022/06/15 05:11:21;;;;;;;11.30;5.85;;;15.60;68.20;;;;;;5095873;28;20032;-66
2022/06/15 05:13:47;;;;;;;10.27;5.68;;;15.60;68.20;;;;;;5095857;28;20111;-66
2022/06/15 05:16:13;;;;;;;12.30;5.15;;;15.70;68.40;;;;;;5094832;28;20026;-66
2022/06/15 05:18:38;;;;;;;10.07;5.22;;;15.70;68.40;;;;;;5095705;28;20463;-66
2022/06/15 05:21:04;;;;;;;9.90;5.50;;;15.70;68.90;;;;;;5095625;28;20029;-66
2022/06/15 05:23:30;;;;;;;9.15;5.90;;;15.80;68.50;;;;;;5095756;28;20051;-66
2022/06/15 05:25:58;;;;;;;12.68;5.25;;;15.90;68.50;;;;;;5095587;28;20024;-66
2022/06/15 05:28:24;;;;;;;8.57;5.50;;;15.90;68.70;;;;;;5095491;28;20056;-66
2022/06/15 05:30:49;;;;;;;8.90;5.57;;;15.90;68.80;;;;;;5095501;28;20028;-66
2022/06/15 05:33:15;;;;;;;8.95;5.45;;;16.00;68.80;;;;;;5095626;28;20463;-66
2022/06/15 05:35:41;;;;;;;8.50;5.45;;;16.00;68.90;;;;;;5095402;28;20037;-66
2022/06/15 05:38:06;;;;;;;8.23;5.32;;;16.10;69.00;;;;;;5095394;28;20032;-66
2022/06/15 05:40:32;;;;;;;9.80;5.80;;;16.10;68.80;;;;;;5095363;28;20035;-66
2022/06/15 05:42:57;;;;;;;9.38;5.55;;;16.10;68.80;;;;;;5095321;28;20033;-66
2022/06/15 05:45:23;;;;;;;8.35;5.35;;;16.10;68.70;;;;;;5095163;28;20017;-66
2022/06/15 05:47:49;;;;;;;9.98;5.20;;;16.20;68.90;;;;;;5094104;28;20040;-66
2022/06/15 05:50:15;;;;;;;8.77;5.15;;;16.20;68.80;;;;;;5094560;28;20036;-66
2022/06/15 05:52:41;;;;;;;6.50;4.97;;;16.30;68.80;;;;;;5095093;28;20036;-66
2022/06/15 05:55:08;;;;;;;7.55;4.90;;;16.30;67.80;;;;;;5094940;28;20088;-66
2022/06/15 05:57:33;;;;;;;8.85;5.63;;;16.40;67.80;;;;;;5094588;28;20032;-66
2022/06/15 05:59:59;;;;;;;10.35;5.43;;;16.50;68.00;;;;;;5095039;28;20048;-66
2022/06/15 06:02:27;;;;;;;9.15;5.88;;;16.50;68.00;;;;;;5094810;28;20028;-66
2022/06/15 06:04:53;;;;;;;7.53;5.00;;;16.60;67.70;;;;;;5094603;28;20027;-67
2022/06/15 06:07:21;;;;;;;11.07;5.20;;;16.70;67.70;;;;;;5093177;28;20044;-67
2022/06/15 06:09:47;;;;;;;9.55;5.10;;;16.70;67.60;;;;;;5094738;28;20012;-66
2022/06/15 06:12:13;;;;;;;9.90;5.60;;;16.80;67.50;;;;;;5094671;28;20059;-66
2022/06/15 06:14:38;;;;;;;7.18;5.22;;;16.90;68.20;;;;;;5094638;28;20029;-66
2022/06/15 06:17:06;;;;;;;10.35;5.43;;;16.90;67.10;;;;;;5094645;28;20032;-66
2022/06/15 06:19:32;;;;;;;9.57;5.38;;;17.00;66.90;;;;;;5094556;28;20055;-66
2022/06/15 06:21:57;;;;;;;9.52;5.25;;;17.10;66.90;;;;;;5094428;28;20032;-66
2022/06/15 06:24:23;;;;;;;8.13;5.28;;;17.10;66.80;;;;;;5094458;28;20027;-66
2022/06/15 06:26:48;;;;;;;10.35;5.50;;;17.20;66.30;;;;;;5094372;28;20052;-66
2022/06/15 06:29:16;;;;;;;11.32;6.03;;;17.20;66.50;;;;;;5094236;28;20039;-66
2022/06/15 06:31:42;;;;;;;12.18;5.72;;;17.30;66.50;;;;;;5094288;28;20031;-66
2022/06/15 06:34:10;;;;;;;10.40;5.05;;;17.30;67.00;;;;;;5094271;28;20023;-66
2022/06/15 06:36:40;;;;;;;7.43;5.07;;;17.40;66.20;;;;;;5094220;28;20372;-66
2022/06/15 06:39:14;;;;;;;10.85;5.70;;;17.50;66.00;;;;;;5093110;28;20027;-66
2022/06/15 06:41:40;;;;;;;10.43;5.53;;;17.50;66.00;;;;;;5094108;28;20094;-66
2022/06/15 06:44:07;;;;;;;8.75;5.20;;;17.60;65.70;;;;;;5094059;28;20021;-66
2022/06/15 06:46:34;;;;;;;11.13;4.93;;;17.60;65.60;;;;;;5094043;28;20020;-66
2022/06/15 06:49:00;;;;;;;9.60;5.05;;;17.70;65.40;;;;;;5093990;28;20028;-66
2022/06/15 06:51:27;;;;;;;8.65;5.30;;;17.80;65.50;;;;;;5094016;28;20514;-66
2022/06/15 06:53:52;;;;;;;11.18;5.20;;;17.80;65.20;;;;;;5093828;28;20031;-66
2022/06/15 06:56:18;;;;;;;7.18;5.30;;;17.90;65.70;;;;;;5093800;28;20029;-66
2022/06/15 06:58:44;;;;;;;7.82;4.88;;;18.00;65.20;;;;;;5093778;28;20033;-66
2022/06/15 07:01:10;;;;;;;9.60;5.22;;;18.00;64.70;;;;;;5092877;28;20028;-66
2022/06/15 07:03:36;;;;;;;9.43;5.50;;;18.10;64.80;;;;;;5092860;28;20028;-66
2022/06/15 07:06:04;;;;;;;7.90;5.05;;;18.10;64.70;;;;;;5093483;28;20047;-66
2022/06/15 07:08:30;;;;;;;11.07;5.03;;;18.20;64.70;;;;;;5093688;28;20016;-66
2022/06/15 07:10:55;;;;;;;7.13;5.03;;;18.30;64.20;;;;;;5093582;28;20053;-66
2022/06/15 07:13:21;;;;;;;6.00;4.82;;;18.40;63.90;;;;;;5093582;28;20032;-66
2022/06/15 07:15:47;;;;;;;7.70;4.75;;;18.40;63.90;;;;;;5092382;28;20041;-66
2022/06/15 07:18:13;;;;;;;8.10;4.85;;;18.50;63.70;;;;;;5093513;28;20031;-66
2022/06/15 07:20:38;;;;;;;9.52;4.75;;;18.60;63.90;;;;;;5092416;28;20021;-66
2022/06/15 07:23:04;;;;;;;7.50;4.72;;;18.70;63.50;;;;;;5093525;28;20526;-66
2022/06/15 07:25:30;;;;;;;7.93;4.97;;;18.70;63.20;;;;;;5093363;28;20025;-66
2022/06/15 07:27:56;;;;;;;7.60;4.70;;;18.80;63.30;;;;;;5093305;28;20072;-66
2022/06/15 07:30:26;;;;;;;7.90;4.70;;;18.90;63.10;;;;;;5093310;28;20067;-66
2022/06/15 07:32:52;;;;;;;6.03;3.78;;;19.00;63.10;;;;;;5093477;28;20020;-66
2022/06/15 07:35:25;;;;;;;6.53;4.38;;;19.10;62.70;;;;;;5093299;28;20027;-67
2022/06/15 07:37:52;;;;;;;7.32;4.30;;;19.20;62.40;;;;;;5093309;28;20028;-67
2022/06/15 07:40:20;;;;;;;6.30;4.13;;;19.30;62.00;;;;;;5092206;28;20048;-67
2022/06/15 07:42:47;;;;;;;9.38;4.00;;;19.40;60.80;;;;;;5093209;28;20051;-67
2022/06/15 07:45:13;;;;;;;8.77;4.07;;;19.40;61.00;;;;;;5093175;28;20025;-67
2022/06/15 07:50:23;;;;;;;7.53;3.90;;;19.60;61.20;;;;;;5093218;28;20055;-67
2022/06/15 07:52:52;;;;;;;118.88;81.57;;;19.70;60.30;;;;;;5093078;28;20021;-68
2022/06/15 07:55:31;;;;;;;45.88;28.83;;;19.80;60.40;;;;;;5093086;28;20486;-67
2022/06/15 07:57:57;;;;;;;9.18;5.20;;;19.90;59.40;;;;;;5093185;28;20387;-68
2022/06/15 08:00:24;;;;;;;6.93;3.97;;;19.90;58.80;;;;;;5092960;28;20032;-67
2022/06/15 08:02:51;;;;;;;10.80;4.20;;;19.90;60.00;;;;;;5093020;28;20025;-67
2022/06/15 08:05:17;;;;;;;6.38;3.47;;;20.00;60.00;;;;;;5092916;28;20047;-67
2022/06/15 08:07:45;;;;;;;9.18;3.67;;;20.10;59.10;;;;;;5092757;28;20045;-67
2022/06/15 08:10:14;;;;;;;8.15;4.00;;;20.20;59.20;;;;;;5092906;28;20056;-67
2022/06/15 08:12:41;;;;;;;6.38;3.90;;;20.30;59.00;;;;;;5095276;28;20028;-67
2022/06/15 08:15:08;;;;;;;8.90;3.83;;;20.30;58.70;;;;;;5096899;28;20020;-67
2022/06/15 08:17:57;;;;;;;8.05;3.40;;;20.30;58.80;;;;;;5096004;28;20444;-67
2022/06/15 08:20:25;;;;;;;8.75;3.60;;;20.40;58.10;;;;;;5095769;28;20051;-67
2022/06/15 08:22:54;;;;;;;10.43;3.35;;;20.40;57.00;;;;;;5096813;28;20035;-66
2022/06/15 08:25:31;;;;;;;6.80;3.13;;;20.40;56.60;;;;;;5096815;28;20012;-67
2022/06/15 08:27:56;;;;;;;7.40;3.35;;;20.50;56.20;;;;;;5096670;28;20066;-67
2022/06/15 08:30:23;;;;;;;6.68;3.15;;;20.50;56.60;;;;;;5096645;28;20028;-68
2022/06/15 08:32:49;;;;;;;7.03;3.10;;;20.50;56.90;;;;;;5096589;28;20028;-67
2022/06/15 08:35:19;;;;;;;7.88;3.97;;;20.60;56.50;;;;;;5096467;28;20017;-67
2022/06/15 08:37:49;;;;;;;4.80;3.00;;;20.70;56.00;;;;;;5095507;28;20029;-68
2022/06/15 08:40:19;;;;;;;8.38;3.13;;;20.80;56.50;;;;;;5095589;28;20032;-67
2022/06/15 08:43:01;;;;;;;6.53;3.30;;;20.90;56.10;;;;;;5096299;28;20372;-67
2022/06/15 08:45:46;;;;;;;8.55;3.10;;;20.90;56.00;;;;;;5096518;28;20020;-67
2022/06/15 08:48:33;;;;;;;10.00;3.22;;;21.10;55.40;;;;;;5095394;28;20092;-67
2022/06/15 08:51:04;;;;;;;8.52;3.35;;;21.10;55.20;;;;;;5096418;28;20082;-67
2022/06/15 08:53:49;;;;;;;8.07;3.40;;;21.20;55.00;;;;;;5096215;28;20028;-67
2022/06/15 08:56:26;;;;;;;6.63;3.63;;;21.20;54.50;;;;;;5096331;28;20391;-68
2022/06/15 08:58:54;;;;;;;8.32;3.65;;;21.30;54.70;;;;;;5096073;28;20024;-67
2022/06/15 09:01:41;;;;;;;17.67;4.15;;;21.30;54.20;;;;;;5095944;28;20107;-68
2022/06/15 09:04:23;;;;;;;8.40;3.92;;;21.40;54.00;;;;;;5096061;28;20024;-68
2022/06/15 09:07:25;;;;;;;7.22;3.88;;;21.50;54.20;;;;;;5094831;28;20045;-68
2022/06/15 09:10:12;;;;;;;5.15;3.53;;;21.60;54.00;;;;;;5095976;28;20103;-68
2022/06/15 09:13:16;;;;;;;7.80;3.55;;;21.70;54.40;;;;;;5096973;28;20029;-68
2022/06/15 09:16:14;;;;;;;7.47;3.95;;;21.70;54.00;;;;;;5096270;28;20052;-68
2022/06/15 09:18:45;;;;;;;8.50;3.55;;;21.70;53.50;;;;;;5094828;28;20092;-68
2022/06/15 09:21:16;;;;;;;6.75;3.58;;;21.80;53.00;;;;;;5095658;28;20020;-70
2022/06/15 09:23:51;;;;;;;6.85;3.33;;;21.70;53.00;;;;;;5094471;28;20032;-71
2022/06/15 09:26:23;;;;;;;7.18;3.15;;;21.80;51.70;;;;;;5095674;28;20039;-68
2022/06/15 09:28:57;;;;;;;8.73;3.70;;;21.90;53.00;;;;;;5095532;28;20017;-67
2022/06/15 09:31:51;;;;;;;8.02;3.33;;;22.10;52.20;;;;;;5095508;28;20031;-72
2022/06/15 09:34:41;;;;;;;7.75;4.07;;;22.20;52.30;;;;;;5094438;28;20099;-70
2022/06/15 09:37:20;;;;;;;9.70;4.00;;;22.30;52.50;;;;;;5095573;28;20017;-70
2022/06/15 09:39:46;;;;;;;9.25;4.00;;;22.40;52.60;;;;;;5094384;28;20082;-70
2022/06/15 09:42:14;;;;;;;6.70;3.60;;;22.50;51.90;;;;;;5095216;28;20025;-67
2022/06/15 09:45:03;;;;;;;5.10;3.45;;;22.50;51.50;;;;;;5095258;28;20025;-67
2022/06/15 09:47:52;;;;;;;7.40;3.58;;;22.60;51.20;;;;;;5094656;28;20490;-67
2022/06/15 09:50:41;;;;;;;6.45;3.58;;;22.60;51.30;;;;;;5093483;28;20047;-67
2022/06/15 09:53:19;;;;;;;8.07;3.28;;;22.70;50.30;;;;;;5095040;28;20017;-67
2022/06/15 09:55:53;;;;;;;6.05;3.20;;;22.70;49.90;;;;;;5095165;28;20035;-67
2022/06/15 09:58:22;;;;;;;7.05;3.00;;;22.70;50.00;;;;;;5095066;28;20035;-67
2022/06/15 10:00:49;;;;;;;10.95;3.00;;;22.80;50.60;;;;;;5094839;28;20056;-67
2022/06/15 10:03:30;;;;;;;6.20;2.75;;;23.00;50.60;;;;;;5094890;28;20027;-67
2022/06/15 10:06:18;;;;;;;7.72;3.47;;;23.10;49.10;;;;;;5094734;28;20084;-68
2022/06/15 10:08:44;;;;;;;5.97;2.63;;;23.10;48.70;;;;;;5083815;28;20028;-67
2022/06/15 10:11:17;;;;;;;6.20;2.78;;;23.20;48.90;;;;;;5094767;28;20509;-67
2022/06/15 10:13:43;;;;;;;5.43;2.60;;;23.20;47.80;;;;;;5094805;28;20028;-67
2022/06/15 10:16:15;;;;;;;7.15;2.70;;;23.20;48.20;;;;;;5094689;28;20029;-68
2022/06/15 10:18:53;;;;;;;9.80;3.00;;;23.30;49.30;;;;;;5094623;28;20028;-68
2022/06/15 10:21:24;;;;;;;5.65;2.55;;;23.40;48.10;;;;;;5094642;28;20032;-68
2022/06/15 10:24:05;;;;;;;8.13;2.80;;;23.40;48.30;;;;;;5094617;28;20024;-68
2022/06/15 10:26:50;;;;;;;7.15;2.70;;;23.40;48.00;;;;;;5094509;28;20013;-68
2022/06/15 10:29:15;;;;;;;6.88;2.72;;;23.60;48.90;;;;;;5094368;28;20046;-70
2022/06/15 10:32:01;;;;;;;8.50;3.28;;;23.50;46.90;;;;;;5094316;28;20084;-70
2022/06/15 10:34:30;;;;;;;5.38;2.78;;;23.60;47.10;;;;;;5093218;28;20482;-70
2022/06/15 10:37:00;;;;;;;5.95;3.20;;;23.60;46.00;;;;;;5094253;28;20111;-70
2022/06/15 10:39:29;;;;;;;6.70;2.92;;;23.60;46.40;;;;;;5094251;28;20086;-70
2022/06/15 10:42:21;;;;;;;3.60;2.67;;;23.70;46.70;;;;;;5094058;28;20052;-70
2022/06/15 10:44:59;;;;;;;6.18;2.53;;;23.70;45.60;;;;;;5094101;28;20478;-70
2022/06/15 10:47:34;;;;;;;5.53;2.88;;;23.80;45.80;;;;;;5094101;28;20044;-69
2022/06/15 10:50:02;;;;;;;6.57;2.63;;;23.80;46.70;;;;;;5094156;28;20024;-70
2022/06/15 10:52:48;;;;;;;8.50;3.10;;;23.90;46.20;;;;;;5093953;28;20086;-69
2022/06/15 11:04:19;;;;;;;7.32;2.85;;;24.10;45.10;;;;;;5093903;28;20051;-70
2022/06/15 11:06:50;;;;;;;6.68;2.55;;;24.10;45.10;;;;;;5093494;28;20070;-70
2022/06/15 11:09:20;;;;;;;5.70;2.53;;;24.20;45.70;;;;;;5093670;28;20032;-70
2022/06/15 11:11:47;;;;;;;5.78;3.00;;;24.30;45.60;;;;;;5093612;28;20024;-69
2022/06/15 11:14:31;;;;;;;5.68;2.60;;;24.40;44.70;;;;;;5093652;28;20025;-70
2022/06/15 11:20:03;;;;;;;9.07;2.83;;;24.50;45.40;;;;;;5093670;28;20040;-69
2022/06/15 11:22:30;;;;;;;6.22;2.97;;;24.60;44.90;;;;;;5093434;28;20021;-69
2022/06/15 11:25:12;;;;;;;5.13;2.90;;;24.70;45.10;;;;;;5093466;28;20027;-69
2022/06/15 11:28:12;;;;;;;6.93;2.95;;;24.80;44.90;;;;;;5093472;28;20025;-69
2022/06/15 11:30:50;;;;;;;5.13;2.90;;;24.80;45.30;;;;;;5082481;28;20097;-69
2022/06/15 11:33:33;;;;;;;5.75;2.60;;;24.90;44.60;;;;;;5093369;28;20025;-69
2022/06/15 11:36:03;;;;;;;7.60;2.85;;;24.90;44.40;;;;;;5092305;28;20039;-69
2022/06/15 11:38:44;;;;;;;6.07;2.75;;;25.00;43.00;;;;;;5093306;28;20021;-69
2022/06/15 11:41:48;;;;;;;5.57;2.43;;;25.10;42.40;;;;;;5093248;28;20056;-69
2022/06/15 11:44:20;;;;;;;5.45;2.80;;;25.10;43.80;;;;;;5090122;28;20274;-70
2022/06/15 11:46:45;;;;;;;6.50;2.90;;;25.20;43.10;;;;;;5092803;28;20055;-69
2022/06/15 11:49:22;;;;;;;6.30;2.72;;;25.20;44.00;;;;;;5093195;28;20080;-69
2022/06/15 11:52:13;;;;;;;6.43;2.80;;;25.30;43.10;;;;;;5093221;28;20020;-70
2022/06/15 11:55:00;;;;;;;5.65;2.65;;;25.40;42.40;;;;;;5093311;28;20032;-69
2022/06/15 11:58:09;;;;;;;8.00;2.80;;;25.40;42.30;;;;;;5093113;28;20025;-69
2022/06/15 12:00:48;;;;;;;5.20;2.55;;;25.50;42.50;;;;;;5069555;28;20040;-69
2022/06/15 12:03:26;;;;;;;7.30;3.17;;;25.50;42.70;;;;;;5093089;28;20090;-69
2022/06/15 12:06:13;;;;;;;5.53;3.00;;;25.60;42.40;;;;;;5092936;28;20025;-71
2022/06/15 12:09:03;;;;;;;6.68;2.60;;;25.70;42.40;;;;;;5093178;28;20044;-69
2022/06/15 12:14:57;;;;;;;11.55;2.90;;;25.80;42.50;;;;;;5087483;28;20039;-69
2022/06/15 12:17:23;;;;;;;6.53;2.85;;;25.90;42.40;;;;;;5092911;28;20170;-68
2022/06/15 12:19:57;;;;;;;7.00;2.60;;;25.90;42.00;;;;;;5092910;28;20024;-68
2022/06/15 12:22:44;;;;;;;6.43;2.80;;;25.90;40.30;;;;;;5092822;28;20028;-68
2022/06/15 12:25:35;;;;;;;7.55;2.78;;;26.00;40.70;;;;;;5093010;28;20024;-69
2022/06/15 12:28:34;;;;;;;5.10;2.58;;;26.10;41.80;;;;;;5092913;28;20017;-68
2022/06/15 12:31:48;;;;;;;7.72;2.95;;;26.20;40.40;;;;;;5092707;28;20024;-69
2022/06/15 12:34:33;;;;;;;5.55;2.70;;;26.10;39.00;;;;;;5079523;28;20040;-69
2022/06/15 12:37:01;;;;;;;3.38;2.55;;;26.00;40.20;;;;;;5092770;28;20052;-69
2022/06/15 12:39:44;;;;;;;6.10;2.40;;;26.10;39.90;;;;;;5091642;28;20029;-68
2022/06/15 12:42:17;;;;;;;5.68;2.35;;;26.20;39.80;;;;;;5092794;28;20403;-69
2022/06/15 12:44:52;;;;;;;6.57;2.80;;;26.30;39.10;;;;;;5092682;28;20033;-69
2022/06/15 12:47:20;;;;;;;4.70;2.47;;;26.40;38.70;;;;;;5092624;28;20025;-69
2022/06/15 12:50:04;;;;;;;7.00;3.05;;;26.40;38.80;;;;;;5091484;28;20084;-69
2022/06/15 12:52:48;;;;;;;5.47;2.70;;;26.50;39.10;;;;;;5092729;28;20025;-68
2022/06/15 12:55:59;;;;;;;6.90;2.75;;;26.60;40.70;;;;;;5092652;28;20020;-68
2022/06/15 12:58:48;;;;;;;9.82;3.30;;;26.80;38.70;;;;;;5091203;28;20058;-68
2022/06/15 13:01:23;;;;;;;8.07;2.70;;;26.70;39.30;;;;;;5096042;28;20032;-68
2022/06/15 13:04:06;;;;;;;8.98;3.30;;;26.60;39.00;;;;;;5096139;28;20076;-68
2022/06/15 13:06:35;;;;;;;8.07;3.00;;;26.70;38.20;;;;;;5095905;28;20036;-68
2022/06/15 13:09:18;;;;;;;5.88;2.85;;;26.80;38.50;;;;;;5096010;28;20095;-68
2022/06/15 13:11:58;;;;;;;6.55;2.72;;;26.90;38.50;;;;;;5096133;28;20044;-68
2022/06/15 13:14:27;;;;;;;7.35;3.03;;;27.00;38.80;;;;;;5096093;28;20021;-68
2022/06/15 13:17:01;;;;;;;7.68;3.00;;;27.10;37.70;;;;;;5095757;28;20052;-68
2022/06/15 13:19:32;;;;;;;4.88;2.75;;;27.10;37.70;;;;;;5095830;28;20059;-68
2022/06/15 13:22:06;;;;;;;4.55;2.60;;;27.20;37.50;;;;;;5095882;28;20029;-68
2022/06/15 13:25:06;;;;;;;6.43;2.58;;;27.30;37.10;;;;;;5095950;28;20157;-68
2022/06/15 13:27:39;;;;;;;4.65;2.50;;;27.30;37.30;;;;;;5095231;28;20056;-67
2022/06/15 13:30:23;;;;;;;;;;;27.30;37.80;;;;;;5096027;28;20029;-68
2022/06/15 13:32:57;;;;;;;5.22;2.40;;;27.30;37.30;;;;;;5095706;28;19912;-67